KAKH

Details ICAO KAKH
Name Gastonia Muni
Region United States
Timezone America/New_York (UTC-4.0)
Plans Departing 8
Arriving 4
Stats Elevation 797 ft / 243 m (AMSL)
Location 35.202624° -81.149875°
Runways 1
Magnetic Variation 7.577° W
Sunrise 2018-05-25 10:15:41 UTC / 2018-05-25 06:15:41 Local
Sunset 2018-05-26 00:30:19 UTC / 2018-05-25 20:30:19 Local
Advertisement - Login to hide

Runways

ID Width Length Bearing (true) Bearing (mag) Surface Threshold Offset Overrun Length
03 100 ft / 30 m 3,775 ft / 1,151 m 28.23° 35.81° Asphalt 0 ft / 0 m 0 ft / 0 m
21 100 ft / 30 m 3,775 ft / 1,151 m 208.23° 215.81° Asphalt 90 ft / 27 m 0 ft / 0 m

Map

Weather


0- 5 10 15 20 25 30 35+ Temperature / ° C

Clouds and Precipitation
Forecast for 2018-05-26 00:00 UTC. Updated 3 hours ago

Ground ~20,000 ft ~40,000 ft Winds

METAR

KAKH 260054Z AUTO 00000KT 10SM CLR 22/21 A3001 RMK AO2 RAE2356 SLP157 P0000 T02220206

TAF

Not found

Frequencies

Recorded 135.72 MHz ASOS
Approach 134.75 MHz CHARLOTTE APP/DEP
Unicom 123.00 MHz CTAF/UNICOM
Warning: Do not use this data for real-world aviation or navigation. No guarantee of current accuracy is given.